sensor_id;sensor_type;location;lat;lon;timestamp;P1;durP1;ratioP1;P2;durP2;ratioP2
75071;SDS011;63651;55.728;38.022;2023-07-02T00:00:23;9.57;;;5.40;;
75071;SDS011;63651;55.728;38.022;2023-07-02T00:05:24;6.25;;;5.10;;
75071;SDS011;63651;55.728;38.022;2023-07-02T00:10:25;6.47;;;5.40;;
75071;SDS011;63651;55.728;38.022;2023-07-02T00:15:27;8.80;;;5.90;;
75071;SDS011;63651;55.728;38.022;2023-07-02T00:20:28;6.40;;;5.28;;
75071;SDS011;63651;55.728;38.022;2023-07-02T00:25:30;7.95;;;6.03;;
75071;SDS011;63651;55.728;38.022;2023-07-02T00:30:31;6.72;;;5.90;;
75071;SDS011;63651;55.728;38.022;2023-07-02T00:35:32;9.15;;;6.03;;
75071;SDS011;63651;55.728;38.022;2023-07-02T00:40:33;7.93;;;5.63;;
75071;SDS011;63651;55.728;38.022;2023-07-02T00:45:34;5.93;;;5.32;;
75071;SDS011;63651;55.728;38.022;2023-07-02T00:50:35;9.00;;;5.68;;
75071;SDS011;63651;55.728;38.022;2023-07-02T00:55:37;6.22;;;5.63;;
75071;SDS011;63651;55.728;38.022;2023-07-02T01:00:38;6.65;;;5.47;;
75071;SDS011;63651;55.728;38.022;2023-07-02T01:05:39;6.38;;;5.25;;
75071;SDS011;63651;55.728;38.022;2023-07-02T01:10:41;7.60;;;5.38;;
75071;SDS011;63651;55.728;38.022;2023-07-02T01:15:43;7.93;;;5.30;;
75071;SDS011;63651;55.728;38.022;2023-07-02T01:20:45;6.25;;;5.65;;
75071;SDS011;63651;55.728;38.022;2023-07-02T01:25:47;7.85;;;6.03;;
75071;SDS011;63651;55.728;38.022;2023-07-02T01:30:51;7.65;;;5.95;;
75071;SDS011;63651;55.728;38.022;2023-07-02T01:35:52;8.18;;;5.68;;
75071;SDS011;63651;55.728;38.022;2023-07-02T01:40:53;6.40;;;5.30;;
75071;SDS011;63651;55.728;38.022;2023-07-02T01:45:54;7.18;;;5.55;;
75071;SDS011;63651;55.728;38.022;2023-07-02T01:50:57;6.22;;;5.50;;
75071;SDS011;63651;55.728;38.022;2023-07-02T01:55:58;7.15;;;5.45;;
75071;SDS011;63651;55.728;38.022;2023-07-02T02:01:00;8.05;;;5.95;;
75071;SDS011;63651;55.728;38.022;2023-07-02T02:06:01;5.95;;;5.35;;
75071;SDS011;63651;55.728;38.022;2023-07-02T02:11:02;7.82;;;6.53;;
75071;SDS011;63651;55.728;38.022;2023-07-02T02:16:03;9.07;;;5.75;;
75071;SDS011;63651;55.728;38.022;2023-07-02T02:21:04;6.25;;;5.47;;
75071;SDS011;63651;55.728;38.022;2023-07-02T02:26:05;6.00;;;5.10;;
75071;SDS011;63651;55.728;38.022;2023-07-02T02:31:06;7.15;;;6.05;;
75071;SDS011;63651;55.728;38.022;2023-07-02T02:36:07;6.20;;;5.60;;
75071;SDS011;63651;55.728;38.022;2023-07-02T02:41:08;7.25;;;6.10;;
75071;SDS011;63651;55.728;38.022;2023-07-02T02:46:12;6.38;;;4.82;;
75071;SDS011;63651;55.728;38.022;2023-07-02T02:51:13;6.88;;;5.57;;
75071;SDS011;63651;55.728;38.022;2023-07-02T02:56:14;8.60;;;5.15;;
75071;SDS011;63651;55.728;38.022;2023-07-02T03:01:15;6.88;;;5.25;;
75071;SDS011;63651;55.728;38.022;2023-07-02T03:06:16;6.28;;;5.25;;
75071;SDS011;63651;55.728;38.022;2023-07-02T03:11:17;5.60;;;4.90;;
75071;SDS011;63651;55.728;38.022;2023-07-02T03:16:18;7.45;;;5.80;;
75071;SDS011;63651;55.728;38.022;2023-07-02T03:21:22;7.80;;;4.93;;
75071;SDS011;63651;55.728;38.022;2023-07-02T03:26:23;5.90;;;4.65;;
75071;SDS011;63651;55.728;38.022;2023-07-02T03:31:24;5.88;;;4.72;;
75071;SDS011;63651;55.728;38.022;2023-07-02T03:36:25;6.05;;;5.50;;
75071;SDS011;63651;55.728;38.022;2023-07-02T03:41:27;5.50;;;4.95;;
75071;SDS011;63651;55.728;38.022;2023-07-02T03:46:28;7.90;;;4.85;;
75071;SDS011;63651;55.728;38.022;2023-07-02T03:51:31;5.82;;;5.22;;
75071;SDS011;63651;55.728;38.022;2023-07-02T03:56:34;6.53;;;4.88;;
75071;SDS011;63651;55.728;38.022;2023-07-02T04:01:35;5.88;;;4.50;;
75071;SDS011;63651;55.728;38.022;2023-07-02T04:06:36;5.22;;;3.75;;
75071;SDS011;63651;55.728;38.022;2023-07-02T04:11:37;5.70;;;5.10;;
75071;SDS011;63651;55.728;38.022;2023-07-02T04:16:38;8.57;;;5.50;;
75071;SDS011;63651;55.728;38.022;2023-07-02T04:21:39;5.40;;;4.88;;
75071;SDS011;63651;55.728;38.022;2023-07-02T04:26:40;5.38;;;4.88;;
75071;SDS011;63651;55.728;38.022;2023-07-02T04:31:43;7.07;;;5.25;;
75071;SDS011;63651;55.728;38.022;2023-07-02T04:36:44;7.70;;;6.10;;
75071;SDS011;63651;55.728;38.022;2023-07-02T04:41:45;9.27;;;7.50;;
75071;SDS011;63651;55.728;38.022;2023-07-02T04:46:46;9.40;;;7.25;;
75071;SDS011;63651;55.728;38.022;2023-07-02T04:51:47;6.60;;;5.47;;
75071;SDS011;63651;55.728;38.022;2023-07-02T04:56:48;5.68;;;4.97;;
75071;SDS011;63651;55.728;38.022;2023-07-02T05:01:49;6.28;;;5.68;;
75071;SDS011;63651;55.728;38.022;2023-07-02T05:06:50;8.23;;;6.75;;
75071;SDS011;63651;55.728;38.022;2023-07-02T05:11:51;6.65;;;4.88;;
75071;SDS011;63651;55.728;38.022;2023-07-02T05:16:52;6.78;;;5.53;;
75071;SDS011;63651;55.728;38.022;2023-07-02T05:21:53;9.85;;;7.72;;
75071;SDS011;63651;55.728;38.022;2023-07-02T05:26:54;9.95;;;6.53;;
75071;SDS011;63651;55.728;38.022;2023-07-02T05:31:55;7.10;;;5.15;;
75071;SDS011;63651;55.728;38.022;2023-07-02T05:36:56;8.05;;;6.65;;
75071;SDS011;63651;55.728;38.022;2023-07-02T05:41:57;7.47;;;6.72;;
75071;SDS011;63651;55.728;38.022;2023-07-02T05:46:58;6.88;;;5.10;;
75071;SDS011;63651;55.728;38.022;2023-07-02T05:51:59;6.40;;;4.88;;
75071;SDS011;63651;55.728;38.022;2023-07-02T05:57:06;7.60;;;5.32;;
75071;SDS011;63651;55.728;38.022;2023-07-02T06:02:08;7.18;;;5.10;;
75071;SDS011;63651;55.728;38.022;2023-07-02T06:07:09;7.63;;;5.72;;
75071;SDS011;63651;55.728;38.022;2023-07-02T06:12:13;6.82;;;5.20;;
75071;SDS011;63651;55.728;38.022;2023-07-02T06:17:14;6.65;;;4.93;;
75071;SDS011;63651;55.728;38.022;2023-07-02T06:22:15;7.45;;;4.90;;
75071;SDS011;63651;55.728;38.022;2023-07-02T06:27:16;5.72;;;4.50;;
75071;SDS011;63651;55.728;38.022;2023-07-02T06:32:17;6.78;;;4.93;;
75071;SDS011;63651;55.728;38.022;2023-07-02T06:37:19;6.43;;;4.30;;
75071;SDS011;63651;55.728;38.022;2023-07-02T06:42:20;13.63;;;11.05;;
75071;SDS011;63651;55.728;38.022;2023-07-02T06:47:21;8.50;;;5.70;;
75071;SDS011;63651;55.728;38.022;2023-07-02T06:52:22;6.47;;;5.18;;
75071;SDS011;63651;55.728;38.022;2023-07-02T06:57:23;6.78;;;5.65;;
75071;SDS011;63651;55.728;38.022;2023-07-02T07:02:24;9.93;;;7.10;;
75071;SDS011;63651;55.728;38.022;2023-07-02T07:07:25;6.70;;;4.72;;
75071;SDS011;63651;55.728;38.022;2023-07-02T07:12:26;6.55;;;4.30;;
75071;SDS011;63651;55.728;38.022;2023-07-02T07:17:27;6.63;;;4.32;;
75071;SDS011;63651;55.728;38.022;2023-07-02T07:22:28;8.40;;;4.38;;
75071;SDS011;63651;55.728;38.022;2023-07-02T07:27:29;6.40;;;4.22;;
75071;SDS011;63651;55.728;38.022;2023-07-02T07:32:30;6.45;;;4.15;;
75071;SDS011;63651;55.728;38.022;2023-07-02T07:37:31;7.80;;;4.38;;
75071;SDS011;63651;55.728;38.022;2023-07-02T07:42:32;7.22;;;5.65;;
75071;SDS011;63651;55.728;38.022;2023-07-02T07:47:33;5.80;;;4.38;;
75071;SDS011;63651;55.728;38.022;2023-07-02T07:52:34;7.07;;;4.35;;
75071;SDS011;63651;55.728;38.022;2023-07-02T07:57:36;11.82;;;9.77;;
75071;SDS011;63651;55.728;38.022;2023-07-02T08:02:38;9.30;;;7.90;;
75071;SDS011;63651;55.728;38.022;2023-07-02T08:07:39;8.85;;;4.97;;
75071;SDS011;63651;55.728;38.022;2023-07-02T08:12:43;7.35;;;4.88;;
75071;SDS011;63651;55.728;38.022;2023-07-02T08:17:46;7.57;;;6.68;;
75071;SDS011;63651;55.728;38.022;2023-07-02T08:22:47;16.25;;;5.25;;
75071;SDS011;63651;55.728;38.022;2023-07-02T08:27:48;8.30;;;4.47;;
75071;SDS011;63651;55.728;38.022;2023-07-02T08:32:49;7.93;;;4.78;;
75071;SDS011;63651;55.728;38.022;2023-07-02T08:37:50;6.97;;;5.13;;
75071;SDS011;63651;55.728;38.022;2023-07-02T08:42:51;8.52;;;6.05;;
75071;SDS011;63651;55.728;38.022;2023-07-02T08:47:52;6.45;;;5.10;;
75071;SDS011;63651;55.728;38.022;2023-07-02T08:52:57;6.07;;;3.83;;
75071;SDS011;63651;55.728;38.022;2023-07-02T08:57:58;7.68;;;4.75;;
75071;SDS011;63651;55.728;38.022;2023-07-02T09:03:10;5.35;;;4.18;;
75071;SDS011;63651;55.728;38.022;2023-07-02T09:08:22;8.82;;;4.97;;
75071;SDS011;63651;55.728;38.022;2023-07-02T09:13:24;5.85;;;4.22;;
75071;SDS011;63651;55.728;38.022;2023-07-02T09:18:25;9.52;;;4.05;;
75071;SDS011;63651;55.728;38.022;2023-07-02T09:23:35;4.78;;;3.75;;
75071;SDS011;63651;55.728;38.022;2023-07-02T09:28:36;5.78;;;3.55;;
75071;SDS011;63651;55.728;38.022;2023-07-02T09:33:37;5.32;;;4.05;;
75071;SDS011;63651;55.728;38.022;2023-07-02T09:38:39;7.38;;;4.10;;
75071;SDS011;63651;55.728;38.022;2023-07-02T09:43:40;8.27;;;4.63;;
75071;SDS011;63651;55.728;38.022;2023-07-02T09:48:42;6.88;;;5.07;;
75071;SDS011;63651;55.728;38.022;2023-07-02T09:53:43;7.70;;;5.03;;
75071;SDS011;63651;55.728;38.022;2023-07-02T09:58:44;10.82;;;4.90;;
75071;SDS011;63651;55.728;38.022;2023-07-02T10:03:46;6.80;;;4.60;;
75071;SDS011;63651;55.728;38.022;2023-07-02T10:08:53;6.00;;;4.75;;
75071;SDS011;63651;55.728;38.022;2023-07-02T10:13:58;7.75;;;4.65;;
75071;SDS011;63651;55.728;38.022;2023-07-02T10:19:09;7.53;;;4.95;;
75071;SDS011;63651;55.728;38.022;2023-07-02T10:24:14;7.03;;;4.82;;
75071;SDS011;63651;55.728;38.022;2023-07-02T10:29:20;5.47;;;4.72;;
75071;SDS011;63651;55.728;38.022;2023-07-02T10:34:32;7.50;;;4.55;;
75071;SDS011;63651;55.728;38.022;2023-07-02T10:39:38;5.30;;;4.55;;
75071;SDS011;63651;55.728;38.022;2023-07-02T10:44:50;7.70;;;4.90;;
75071;SDS011;63651;55.728;38.022;2023-07-02T10:54:53;15.00;;;6.80;;
75071;SDS011;63651;55.728;38.022;2023-07-02T11:00:12;12.55;;;6.50;;
75071;SDS011;63651;55.728;38.022;2023-07-02T11:05:13;12.20;;;5.75;;
75071;SDS011;63651;55.728;38.022;2023-07-02T11:10:18;12.30;;;5.47;;
75071;SDS011;63651;55.728;38.022;2023-07-02T11:15:19;12.30;;;5.00;;
75071;SDS011;63651;55.728;38.022;2023-07-02T11:20:21;7.65;;;4.70;;
75071;SDS011;63651;55.728;38.022;2023-07-02T11:25:22;7.93;;;4.55;;
75071;SDS011;63651;55.728;38.022;2023-07-02T11:30:23;6.30;;;4.28;;
75071;SDS011;63651;55.728;38.022;2023-07-02T11:35:34;6.63;;;4.43;;
75071;SDS011;63651;55.728;38.022;2023-07-02T11:40:37;7.47;;;4.47;;
75071;SDS011;63651;55.728;38.022;2023-07-02T11:45:38;6.43;;;4.63;;
75071;SDS011;63651;55.728;38.022;2023-07-02T11:50:39;5.28;;;4.22;;
75071;SDS011;63651;55.728;38.022;2023-07-02T11:55:40;4.88;;;4.20;;
75071;SDS011;63651;55.728;38.022;2023-07-02T12:00:41;6.60;;;4.43;;
75071;SDS011;63651;55.728;38.022;2023-07-02T12:05:42;5.10;;;4.25;;
75071;SDS011;63651;55.728;38.022;2023-07-02T12:10:43;6.15;;;3.88;;
75071;SDS011;63651;55.728;38.022;2023-07-02T12:15:44;6.55;;;4.40;;
75071;SDS011;63651;55.728;38.022;2023-07-02T12:20:45;6.80;;;3.80;;
75071;SDS011;63651;55.728;38.022;2023-07-02T12:25:46;5.40;;;3.95;;
75071;SDS011;63651;55.728;38.022;2023-07-02T12:30:47;6.13;;;4.07;;
75071;SDS011;63651;55.728;38.022;2023-07-02T12:35:48;5.75;;;3.95;;
75071;SDS011;63651;55.728;38.022;2023-07-02T12:40:49;8.60;;;4.97;;
75071;SDS011;63651;55.728;38.022;2023-07-02T12:45:50;5.75;;;3.72;;
75071;SDS011;63651;55.728;38.022;2023-07-02T12:50:55;5.57;;;3.83;;
75071;SDS011;63651;55.728;38.022;2023-07-02T12:55:57;5.68;;;3.47;;
75071;SDS011;63651;55.728;38.022;2023-07-02T13:00:58;6.55;;;3.75;;
75071;SDS011;63651;55.728;38.022;2023-07-02T13:05:59;7.00;;;3.83;;
75071;SDS011;63651;55.728;38.022;2023-07-02T13:11:00;8.00;;;3.97;;
75071;SDS011;63651;55.728;38.022;2023-07-02T13:16:02;11.07;;;3.70;;
75071;SDS011;63651;55.728;38.022;2023-07-02T13:21:03;5.80;;;3.80;;
75071;SDS011;63651;55.728;38.022;2023-07-02T13:26:04;7.75;;;3.95;;
75071;SDS011;63651;55.728;38.022;2023-07-02T13:31:05;9.70;;;3.92;;
75071;SDS011;63651;55.728;38.022;2023-07-02T13:36:07;5.65;;;3.97;;
75071;SDS011;63651;55.728;38.022;2023-07-02T13:41:08;6.53;;;3.53;;
75071;SDS011;63651;55.728;38.022;2023-07-02T13:46:09;5.85;;;4.13;;
75071;SDS011;63651;55.728;38.022;2023-07-02T13:51:10;4.65;;;4.00;;
75071;SDS011;63651;55.728;38.022;2023-07-02T13:56:11;6.10;;;4.22;;
75071;SDS011;63651;55.728;38.022;2023-07-02T14:01:12;17.13;;;4.93;;
75071;SDS011;63651;55.728;38.022;2023-07-02T14:06:13;5.53;;;4.05;;
75071;SDS011;63651;55.728;38.022;2023-07-02T14:11:14;5.88;;;3.72;;
75071;SDS011;63651;55.728;38.022;2023-07-02T14:16:15;4.90;;;4.10;;
75071;SDS011;63651;55.728;38.022;2023-07-02T14:21:17;5.45;;;4.18;;
75071;SDS011;63651;55.728;38.022;2023-07-02T14:26:18;6.03;;;3.92;;
75071;SDS011;63651;55.728;38.022;2023-07-02T14:31:19;4.93;;;3.78;;
75071;SDS011;63651;55.728;38.022;2023-07-02T14:36:20;7.00;;;4.50;;
75071;SDS011;63651;55.728;38.022;2023-07-02T14:41:21;5.03;;;4.07;;
75071;SDS011;63651;55.728;38.022;2023-07-02T14:46:22;5.50;;;4.05;;
75071;SDS011;63651;55.728;38.022;2023-07-02T14:51:25;6.38;;;4.30;;
75071;SDS011;63651;55.728;38.022;2023-07-02T14:56:26;7.13;;;4.68;;
75071;SDS011;63651;55.728;38.022;2023-07-02T15:01:27;5.15;;;4.35;;
75071;SDS011;63651;55.728;38.022;2023-07-02T15:06:28;5.50;;;4.43;;
75071;SDS011;63651;55.728;38.022;2023-07-02T15:11:29;6.93;;;4.32;;
75071;SDS011;63651;55.728;38.022;2023-07-02T15:16:30;6.10;;;4.43;;
75071;SDS011;63651;55.728;38.022;2023-07-02T15:21:31;6.25;;;4.35;;
75071;SDS011;63651;55.728;38.022;2023-07-02T15:26:32;7.60;;;4.13;;
75071;SDS011;63651;55.728;38.022;2023-07-02T15:31:33;6.68;;;4.20;;
75071;SDS011;63651;55.728;38.022;2023-07-02T15:36:36;8.23;;;4.00;;
75071;SDS011;63651;55.728;38.022;2023-07-02T15:41:37;9.85;;;4.80;;
75071;SDS011;63651;55.728;38.022;2023-07-02T15:46:41;5.55;;;4.45;;
75071;SDS011;63651;55.728;38.022;2023-07-02T15:51:42;5.80;;;3.88;;
75071;SDS011;63651;55.728;38.022;2023-07-02T15:56:43;6.63;;;4.70;;
75071;SDS011;63651;55.728;38.022;2023-07-02T16:01:44;8.65;;;3.72;;
75071;SDS011;63651;55.728;38.022;2023-07-02T16:06:47;5.53;;;4.53;;
75071;SDS011;63651;55.728;38.022;2023-07-02T16:11:48;8.32;;;4.70;;
75071;SDS011;63651;55.728;38.022;2023-07-02T16:16:49;9.40;;;5.05;;
75071;SDS011;63651;55.728;38.022;2023-07-02T16:21:56;6.70;;;4.57;;
75071;SDS011;63651;55.728;38.022;2023-07-02T16:26:58;5.78;;;4.53;;
75071;SDS011;63651;55.728;38.022;2023-07-02T16:31:59;7.80;;;5.35;;
75071;SDS011;63651;55.728;38.022;2023-07-02T16:37:01;7.55;;;5.25;;
75071;SDS011;63651;55.728;38.022;2023-07-02T16:42:02;7.38;;;5.30;;
75071;SDS011;63651;55.728;38.022;2023-07-02T16:47:03;7.18;;;5.38;;
75071;SDS011;63651;55.728;38.022;2023-07-02T16:52:05;6.75;;;5.10;;
75071;SDS011;63651;55.728;38.022;2023-07-02T16:57:06;5.97;;;5.28;;
75071;SDS011;63651;55.728;38.022;2023-07-02T17:02:08;6.82;;;5.18;;
75071;SDS011;63651;55.728;38.022;2023-07-02T17:07:09;6.75;;;5.65;;
75071;SDS011;63651;55.728;38.022;2023-07-02T17:12:11;5.80;;;5.10;;
75071;SDS011;63651;55.728;38.022;2023-07-02T17:17:18;8.68;;;6.20;;
75071;SDS011;63651;55.728;38.022;2023-07-02T17:22:21;6.22;;;5.18;;
75071;SDS011;63651;55.728;38.022;2023-07-02T17:27:24;6.90;;;5.25;;
75071;SDS011;63651;55.728;38.022;2023-07-02T17:32:28;6.25;;;4.97;;
75071;SDS011;63651;55.728;38.022;2023-07-02T17:37:29;7.43;;;5.32;;
75071;SDS011;63651;55.728;38.022;2023-07-02T17:42:30;9.48;;;5.47;;
75071;SDS011;63651;55.728;38.022;2023-07-02T17:47:31;7.15;;;5.30;;
75071;SDS011;63651;55.728;38.022;2023-07-02T17:52:32;6.03;;;5.05;;
75071;SDS011;63651;55.728;38.022;2023-07-02T17:57:33;7.35;;;5.10;;
75071;SDS011;63651;55.728;38.022;2023-07-02T18:02:35;8.32;;;5.60;;
75071;SDS011;63651;55.728;38.022;2023-07-02T18:07:38;8.25;;;5.97;;
75071;SDS011;63651;55.728;38.022;2023-07-02T18:12:39;7.22;;;5.57;;
75071;SDS011;63651;55.728;38.022;2023-07-02T18:17:40;6.53;;;5.63;;
75071;SDS011;63651;55.728;38.022;2023-07-02T18:22:41;7.63;;;5.53;;
75071;SDS011;63651;55.728;38.022;2023-07-02T18:27:42;7.88;;;5.40;;
75071;SDS011;63651;55.728;38.022;2023-07-02T18:32:43;8.70;;;5.70;;
75071;SDS011;63651;55.728;38.022;2023-07-02T18:37:44;7.32;;;5.63;;
75071;SDS011;63651;55.728;38.022;2023-07-02T18:42:46;7.60;;;5.60;;
75071;SDS011;63651;55.728;38.022;2023-07-02T18:47:47;8.40;;;5.70;;
75071;SDS011;63651;55.728;38.022;2023-07-02T18:52:51;8.65;;;5.85;;
75071;SDS011;63651;55.728;38.022;2023-07-02T18:57:52;8.55;;;5.63;;
75071;SDS011;63651;55.728;38.022;2023-07-02T19:02:53;9.05;;;5.95;;
75071;SDS011;63651;55.728;38.022;2023-07-02T19:07:55;7.68;;;5.60;;
75071;SDS011;63651;55.728;38.022;2023-07-02T19:12:56;11.18;;;7.43;;
75071;SDS011;63651;55.728;38.022;2023-07-02T19:17:59;7.78;;;6.10;;
75071;SDS011;63651;55.728;38.022;2023-07-02T19:23:02;9.30;;;6.20;;
75071;SDS011;63651;55.728;38.022;2023-07-02T19:28:03;12.32;;;7.15;;
75071;SDS011;63651;55.728;38.022;2023-07-02T19:33:04;11.70;;;7.35;;
75071;SDS011;63651;55.728;38.022;2023-07-02T19:38:06;16.33;;;7.57;;
75071;SDS011;63651;55.728;38.022;2023-07-02T19:43:07;13.60;;;8.15;;
75071;SDS011;63651;55.728;38.022;2023-07-02T19:48:08;14.57;;;7.70;;
75071;SDS011;63651;55.728;38.022;2023-07-02T19:53:09;17.35;;;8.13;;
75071;SDS011;63651;55.728;38.022;2023-07-02T19:58:14;11.30;;;7.40;;
75071;SDS011;63651;55.728;38.022;2023-07-02T20:03:16;13.20;;;7.90;;
75071;SDS011;63651;55.728;38.022;2023-07-02T20:08:17;10.75;;;7.40;;
75071;SDS011;63651;55.728;38.022;2023-07-02T20:13:19;12.20;;;8.00;;
75071;SDS011;63651;55.728;38.022;2023-07-02T20:18:20;12.77;;;9.35;;
75071;SDS011;63651;55.728;38.022;2023-07-02T20:23:21;14.18;;;8.85;;
75071;SDS011;63651;55.728;38.022;2023-07-02T20:28:22;14.63;;;9.20;;
75071;SDS011;63651;55.728;38.022;2023-07-02T20:33:23;17.85;;;9.30;;
75071;SDS011;63651;55.728;38.022;2023-07-02T20:38:24;17.73;;;9.63;;
75071;SDS011;63651;55.728;38.022;2023-07-02T20:43:27;15.30;;;9.48;;
75071;SDS011;63651;55.728;38.022;2023-07-02T20:48:28;13.75;;;9.57;;
75071;SDS011;63651;55.728;38.022;2023-07-02T20:53:30;10.73;;;8.45;;
75071;SDS011;63651;55.728;38.022;2023-07-02T20:58:32;13.82;;;9.10;;
75071;SDS011;63651;55.728;38.022;2023-07-02T21:03:33;14.88;;;8.93;;
75071;SDS011;63651;55.728;38.022;2023-07-02T21:08:34;17.50;;;9.27;;
75071;SDS011;63651;55.728;38.022;2023-07-02T21:13:35;14.05;;;9.85;;
75071;SDS011;63651;55.728;38.022;2023-07-02T21:18:36;12.95;;;9.48;;
75071;SDS011;63651;55.728;38.022;2023-07-02T21:23:37;20.98;;;11.20;;
75071;SDS011;63651;55.728;38.022;2023-07-02T21:28:39;16.95;;;10.52;;
75071;SDS011;63651;55.728;38.022;2023-07-02T21:33:40;15.50;;;10.20;;
75071;SDS011;63651;55.728;38.022;2023-07-02T21:38:41;15.77;;;9.18;;
75071;SDS011;63651;55.728;38.022;2023-07-02T21:43:44;13.70;;;9.18;;
75071;SDS011;63651;55.728;38.022;2023-07-02T21:48:49;14.57;;;10.02;;
75071;SDS011;63651;55.728;38.022;2023-07-02T21:53:53;14.05;;;10.75;;
75071;SDS011;63651;55.728;38.022;2023-07-02T21:59:00;13.50;;;9.90;;
75071;SDS011;63651;55.728;38.022;2023-07-02T22:04:01;15.70;;;10.90;;
75071;SDS011;63651;55.728;38.022;2023-07-02T22:09:05;14.05;;;9.05;;
75071;SDS011;63651;55.728;38.022;2023-07-02T22:14:08;13.55;;;8.93;;
75071;SDS011;63651;55.728;38.022;2023-07-02T22:19:09;12.77;;;9.35;;
75071;SDS011;63651;55.728;38.022;2023-07-02T22:24:11;13.55;;;9.18;;
75071;SDS011;63651;55.728;38.022;2023-07-02T22:29:12;14.32;;;9.38;;
75071;SDS011;63651;55.728;38.022;2023-07-02T22:34:13;13.90;;;9.70;;
75071;SDS011;63651;55.728;38.022;2023-07-02T22:39:15;13.57;;;9.15;;
75071;SDS011;63651;55.728;38.022;2023-07-02T22:44:16;11.88;;;8.98;;
75071;SDS011;63651;55.728;38.022;2023-07-02T22:49:20;13.40;;;9.18;;
75071;SDS011;63651;55.728;38.022;2023-07-02T22:54:21;14.60;;;9.50;;
75071;SDS011;63651;55.728;38.022;2023-07-02T22:59:23;15.90;;;9.85;;
75071;SDS011;63651;55.728;38.022;2023-07-02T23:04:25;13.98;;;9.75;;
75071;SDS011;63651;55.728;38.022;2023-07-02T23:09:26;13.77;;;9.07;;
75071;SDS011;63651;55.728;38.022;2023-07-02T23:14:27;13.50;;;9.15;;
75071;SDS011;63651;55.728;38.022;2023-07-02T23:19:28;15.88;;;9.35;;
75071;SDS011;63651;55.728;38.022;2023-07-02T23:24:29;14.65;;;9.80;;
75071;SDS011;63651;55.728;38.022;2023-07-02T23:29:33;16.48;;;10.02;;
75071;SDS011;63651;55.728;38.022;2023-07-02T23:34:34;13.55;;;9.35;;
75071;SDS011;63651;55.728;38.022;2023-07-02T23:39:41;16.83;;;9.02;;
75071;SDS011;63651;55.728;38.022;2023-07-02T23:44:44;16.15;;;9.77;;
75071;SDS011;63651;55.728;38.022;2023-07-02T23:49:47;13.93;;;9.43;;
75071;SDS011;63651;55.728;38.022;2023-07-02T23:54:48;13.65;;;9.25;;
75071;SDS011;63651;55.728;38.022;2023-07-02T23:59:50;14.60;;;8.85;;
